»·PEaware :: N326MC KEUG-KSEA

N326MC :: KEUG-KSEA

FLIGHT INFORMATION

Flight Status: Arrived
Operator: Privately registered:
United States
More flights under this callsign
Pilot: Anonymous 5456 (5456)
Aircraft: MITSUBISHI MU-2 MARQUISE
(MU2)
More flights by this aircraft type
Origin: KEUG Mahlon Sweet
United States
Destination: KSEA Seattle-Tacoma Intl
United States
More flights between these airports :: More routes between these airports
Route: +CVO OLM OLM2
File this flight plan on PilotEdge
Remarks:
Altitude:
(Current/Filed)
20,000ft
Speed:
(Current/Filed)
300kts
Departed: 29-Oct-17 04:16 PM
Arrived: 29-Oct-17 05:16 PM
Distance/Time
Traveled:
203nm/1:00
Distance/Time
To Go:
Arrived

Flight Plot

Page will automatically refresh every two minutes.

Flight plan parsing failed; only flown route is shown


Map Options




Map Legend


Flown Route
Filed Route
Departure Airport
Arrival Airport
Navaid (VOR, NDB)
Fix

Horizontal Profiles

Position Reports

Time Latitude Longitude Heading Altitude Ground
Speed
29-Oct-17 16:10 44.122289 -123.212170 118 378ft 0kts
29-Oct-17 16:11 44.122289 -123.212169 116 378ft 0kts
29-Oct-17 16:12 44.122289 -123.212169 116 378ft 0kts
29-Oct-17 16:13 44.122289 -123.212169 116 378ft 0kts
29-Oct-17 16:14 44.122289 -123.212169 116 378ft 0kts
29-Oct-17 16:15 44.122289 -123.212169 116 378ft 0kts
29-Oct-17 16:16 44.122289 -123.212169 116 378ft 0kts
29-Oct-17 16:17 44.123577 -123.211761 29 377ft 18kts
29-Oct-17 16:18 44.125962 -123.207635 91 377ft 17kts
29-Oct-17 16:19 44.129392 -123.204228 358 378ft 26kts
29-Oct-17 16:20 44.132618 -123.202701 162 378ft 3kts
29-Oct-17 16:21 44.123045 -123.202600 180 397ft 143kts
29-Oct-17 16:22 44.075409 -123.199175 178 2350ft 188kts
29-Oct-17 16:23 44.024365 -123.190355 138 4842ft 195kts
29-Oct-17 16:24 44.034162 -123.130507 3 7261ft 201kts
29-Oct-17 16:25 44.089709 -123.147969 341 9237ft 222kts
29-Oct-17 16:26 44.148649 -123.169122 341 11375ft 221kts
29-Oct-17 16:27 44.206755 -123.189587 341 13498ft 221kts
29-Oct-17 16:28 44.265063 -123.210197 340 15582ft 222kts
29-Oct-17 16:29 44.318121 -123.228989 340 17441ft 224kts
29-Oct-17 16:30 44.378455 -123.250352 339 19478ft 229kts
29-Oct-17 16:31 44.445406 -123.274551 340 20062ft 281kts
29-Oct-17 16:32 44.525138 -123.292109 3 20061ft 318kts
29-Oct-17 16:33 44.612145 -123.277835 1 20049ft 325kts
29-Oct-17 16:34 44.701392 -123.264294 1 20047ft 327kts
29-Oct-17 16:35 44.791457 -123.250537 1 20047ft 327kts
29-Oct-17 16:36 44.881069 -123.236800 1 20047ft 327kts
29-Oct-17 16:37 44.970665 -123.222980 1 20047ft 327kts
29-Oct-17 16:38 45.060031 -123.209151 1 20072ft 326kts
29-Oct-17 16:39 45.141317 -123.196574 1 20074ft 327kts
29-Oct-17 16:40 45.229563 -123.182877 1 20056ft 328kts
29-Oct-17 16:41 45.319420 -123.168892 1 20047ft 327kts
29-Oct-17 16:42 45.408925 -123.154899 1 20047ft 327kts
29-Oct-17 16:43 45.497195 -123.141053 1 20047ft 327kts
29-Oct-17 16:44 45.587251 -123.126901 1 20048ft 327kts
29-Oct-17 16:45 45.676772 -123.112875 2 20047ft 325kts
29-Oct-17 16:46 45.765800 -123.098588 2 20046ft 323kts
29-Oct-17 16:47 45.854597 -123.084600 2 20073ft 323kts
29-Oct-17 16:48 45.943581 -123.070437 2 20074ft 323kts
29-Oct-17 16:49 46.031081 -123.056460 2 20074ft 323kts
29-Oct-17 16:50 46.119146 -123.042339 2 20075ft 323kts
29-Oct-17 16:51 46.200897 -123.029194 2 20076ft 323kts
29-Oct-17 16:52 46.224707 -123.025363 2 20101ft 322kts
29-Oct-17 16:53 46.313641 -123.010998 2 20102ft 323kts
29-Oct-17 16:54 46.401562 -122.996806 3 20093ft 323kts
29-Oct-17 16:55 46.490108 -122.982328 2 20103ft 321kts
29-Oct-17 16:56 46.577709 -122.968647 2 18765ft 319kts
29-Oct-17 16:57 46.664531 -122.954882 3 17131ft 318kts
29-Oct-17 16:58 46.747697 -122.941626 4 15412ft 285kts
29-Oct-17 16:59 46.824028 -122.928632 4 13746ft 280kts
29-Oct-17 17:00 46.900736 -122.916290 5 12089ft 277kts
29-Oct-17 17:01 46.972279 -122.901442 18 11975ft 289kts
29-Oct-17 17:02 47.029824 -122.830908 39 11961ft 257kts
29-Oct-17 17:03 47.083017 -122.761475 39 11971ft 271kts
29-Oct-17 17:04 47.134966 -122.694811 39 11970ft 279kts
29-Oct-17 17:05 47.193544 -122.619804 39 11969ft 282kts
29-Oct-17 17:06 47.251739 -122.544855 39 11967ft 282kts
29-Oct-17 17:07 47.309553 -122.478413 5 10762ft 250kts
29-Oct-17 17:08 47.375939 -122.488584 355 9594ft 243kts
29-Oct-17 17:09 47.444517 -122.486044 3 8436ft 254kts
29-Oct-17 17:10 47.516050 -122.480879 2 7253ft 261kts
29-Oct-17 17:11 47.588259 -122.475410 2 6083ft 259kts
29-Oct-17 17:12 47.656355 -122.470735 6 4390ft 236kts
29-Oct-17 17:13 47.687954 -122.400789 82 3171ft 205kts
29-Oct-17 17:14 47.670669 -122.342750 147 3188ft 157kts
29-Oct-17 17:15 47.632890 -122.313920 165 3208ft 167kts
29-Oct-17 17:16 47.586465 -122.309942 178 2798ft 164kts
29-Oct-17 17:17 47.545586 -122.310310 178 2040ft 132kts
29-Oct-17 17:18 47.512478 -122.310577 177 1411ft 118kts
29-Oct-17 17:19 47.478951 -122.310856 177 774ft 119kts
29-Oct-17 17:20 47.451096 -122.311090 179 437ft 74kts
29-Oct-17 17:21 47.438280 -122.311599 224 437ft 19kts
29-Oct-17 17:22 47.439072 -122.315220 1 437ft 0kts
29-Oct-17 17:23 47.439071 -122.315220 0 437ft 0kts

Navigation Log

Ident Type
Flight plan parsing failed, navigation log unavailable